RYR1NE EDDG-EGSS
Flight info
| Callsign | RYR1NE |
|---|---|
| Flight time | 0h 59m |
| Altitude | 32000 |
| Route | SUVOX1E SUVOX DCT REBGU L602 FLEVO L980 PAM DCT NOGRO M40 RINIS |
| Aircraft | B738/M-SDE2E3FGHIRWXY/LB1 |
Departure
| Time | 2026-05-07 14:24 |
|---|---|
| Airport | Münster Osnabrück Airport (EDDG) |
Arrival
| Time | 2026-05-07 15:24 |
|---|---|
| Airport | London Stansted Airport (EGSS) |
| Time | Latitude | Longitude | Altitude | Speed | Heading |
|---|---|---|---|---|---|
| 2026-05-07 13:56 | 52.13109 | 7.69086 | 167 ft | 0 kts | 198° |
| 2026-05-07 14:20 | 52.13102 | 7.69073 | 167 ft | 3 kts | 241° |
| 2026-05-07 14:20 | 52.13116 | 7.69046 | 167 ft | 5 kts | 338° |
| 2026-05-07 14:20 | 52.13155 | 7.69002 | 167 ft | 9 kts | 296° |
| 2026-05-07 14:21 | 52.13213 | 7.68922 | 167 ft | 14 kts | 335° |
| 2026-05-07 14:21 | 52.13313 | 7.68868 | 167 ft | 15 kts | 342° |
| 2026-05-07 14:21 | 52.13342 | 7.68736 | 167 ft | 14 kts | 253° |
| 2026-05-07 14:21 | 52.13312 | 7.68569 | 167 ft | 18 kts | 252° |
| 2026-05-07 14:22 | 52.13260 | 7.68348 | 167 ft | 23 kts | 252° |
| 2026-05-07 14:22 | 52.13205 | 7.68077 | 167 ft | 27 kts | 251° |
| 2026-05-07 14:22 | 52.13139 | 7.67776 | 167 ft | 28 kts | 250° |
| 2026-05-07 14:22 | 52.13077 | 7.67485 | 166 ft | 27 kts | 251° |
| 2026-05-07 14:23 | 52.13026 | 7.67208 | 167 ft | 25 kts | 270° |
| 2026-05-07 14:23 | 52.13126 | 7.67036 | 166 ft | 15 kts | 340° |
| 2026-05-07 14:23 | 52.13165 | 7.67070 | 165 ft | 6 kts | 65° |
| 2026-05-07 14:23 | 52.13167 | 7.67081 | 165 ft | 3 kts | 69° |
| 2026-05-07 14:24 | 52.13265 | 7.67535 | 164 ft | 82 kts | 71° |
| 2026-05-07 14:24 | 52.13528 | 7.68790 | 169 ft | 150 kts | 70° |
| 2026-05-07 14:24 | 52.13902 | 7.70533 | 720 ft | 168 kts | 69° |
| 2026-05-07 14:24 | 52.14299 | 7.72314 | 1741 ft | 169 kts | 70° |
| 2026-05-07 14:25 | 52.14701 | 7.74192 | 2384 ft | 190 kts | 70° |
| 2026-05-07 14:25 | 52.15154 | 7.76376 | 2712 ft | 216 kts | 71° |
| 2026-05-07 14:25 | 52.15578 | 7.78827 | 3175 ft | 233 kts | 83° |
| 2026-05-07 14:25 | 52.15272 | 7.81451 | 3855 ft | 244 kts | 115° |
| 2026-05-07 14:26 | 52.14062 | 7.83461 | 4493 ft | 260 kts | 152° |
| 2026-05-07 14:26 | 52.12351 | 7.84493 | 5424 ft | 262 kts | 161° |
| 2026-05-07 14:26 | 52.10587 | 7.85239 | 6399 ft | 264 kts | 176° |
| 2026-05-07 14:26 | 52.08784 | 7.84734 | 7255 ft | 266 kts | 206° |
| 2026-05-07 14:27 | 52.07320 | 7.82861 | 7944 ft | 276 kts | 236° |
| 2026-05-07 14:27 | 52.06481 | 7.80037 | 8772 ft | 280 kts | 250° |
| 2026-05-07 14:27 | 52.05837 | 7.77030 | 9657 ft | 284 kts | 252° |
| 2026-05-07 14:27 | 52.05223 | 7.74007 | 10445 ft | 290 kts | 252° |
| 2026-05-07 14:28 | 52.04567 | 7.70768 | 10713 ft | 315 kts | 252° |
| 2026-05-07 14:28 | 52.03851 | 7.67281 | 11080 ft | 333 kts | 251° |
| 2026-05-07 14:28 | 52.03102 | 7.63682 | 11828 ft | 338 kts | 251° |
| 2026-05-07 14:28 | 52.02340 | 7.60058 | 12695 ft | 340 kts | 251° |
| 2026-05-07 14:29 | 52.01567 | 7.56406 | 13516 ft | 344 kts | 251° |
| 2026-05-07 14:29 | 52.00783 | 7.52722 | 14281 ft | 347 kts | 251° |
| 2026-05-07 14:29 | 51.99991 | 7.49009 | 15034 ft | 349 kts | 251° |
| 2026-05-07 14:29 | 51.99192 | 7.45272 | 15756 ft | 353 kts | 251° |
| 2026-05-07 14:30 | 51.98605 | 7.41391 | 16459 ft | 356 kts | 263° |
| 2026-05-07 14:30 | 51.98524 | 7.37363 | 17213 ft | 358 kts | 271° |
| 2026-05-07 14:30 | 51.98583 | 7.33292 | 17877 ft | 363 kts | 271° |
| 2026-05-07 14:30 | 51.98654 | 7.29172 | 18538 ft | 367 kts | 271° |
| 2026-05-07 14:31 | 51.98725 | 7.25015 | 19150 ft | 370 kts | 271° |
| 2026-05-07 14:31 | 51.98789 | 7.20879 | 19755 ft | 373 kts | 271° |
| 2026-05-07 14:31 | 51.98849 | 7.16592 | 20365 ft | 377 kts | 271° |
| 2026-05-07 14:31 | 51.98902 | 7.12380 | 20948 ft | 380 kts | 270° |
| 2026-05-07 14:32 | 51.98952 | 7.08067 | 21520 ft | 384 kts | 270° |
| 2026-05-07 14:32 | 51.99000 | 7.03661 | 22113 ft | 387 kts | 270° |
| 2026-05-07 14:32 | 51.99044 | 6.99271 | 22676 ft | 391 kts | 270° |
| 2026-05-07 14:32 | 51.99086 | 6.94907 | 23224 ft | 394 kts | 270° |
| 2026-05-07 14:33 | 51.99128 | 6.90443 | 23745 ft | 397 kts | 270° |
| 2026-05-07 14:33 | 51.99167 | 6.85945 | 24208 ft | 400 kts | 270° |
| 2026-05-07 14:33 | 51.99206 | 6.81420 | 24679 ft | 402 kts | 270° |
| 2026-05-07 14:33 | 51.99243 | 6.76852 | 25125 ft | 405 kts | 270° |
| 2026-05-07 14:34 | 51.99278 | 6.72268 | 25577 ft | 407 kts | 270° |
| 2026-05-07 14:34 | 51.99311 | 6.67655 | 26016 ft | 410 kts | 270° |
| 2026-05-07 14:34 | 51.99343 | 6.63012 | 26448 ft | 413 kts | 270° |
| 2026-05-07 14:34 | 51.99374 | 6.58346 | 26883 ft | 415 kts | 270° |
| 2026-05-07 14:35 | 51.99402 | 6.53653 | 27449 ft | 413 kts | 270° |
| 2026-05-07 14:35 | 51.99429 | 6.49017 | 28107 ft | 410 kts | 270° |
| 2026-05-07 14:35 | 51.99454 | 6.44405 | 28701 ft | 408 kts | 270° |
| 2026-05-07 14:35 | 51.99477 | 6.39805 | 29232 ft | 408 kts | 270° |
| 2026-05-07 14:36 | 51.99498 | 6.35208 | 29775 ft | 407 kts | 269° |
| 2026-05-07 14:36 | 51.99517 | 6.30687 | 30306 ft | 405 kts | 269° |
| 2026-05-07 14:36 | 51.99534 | 6.26129 | 30759 ft | 403 kts | 269° |
| 2026-05-07 14:36 | 51.99549 | 6.21581 | 31191 ft | 403 kts | 269° |
| 2026-05-07 14:37 | 51.99563 | 6.17047 | 31617 ft | 402 kts | 269° |
| 2026-05-07 14:37 | 51.99585 | 6.07955 | 32025 ft | 405 kts | 269° |
| 2026-05-07 14:37 | 51.99593 | 6.03390 | 32046 ft | 404 kts | 269° |
| 2026-05-07 14:38 | 51.99605 | 5.94358 | 32047 ft | 398 kts | 269° |
| 2026-05-07 14:38 | 51.99609 | 5.85346 | 32058 ft | 400 kts | 269° |
| 2026-05-07 14:39 | 51.99607 | 5.76306 | 32053 ft | 401 kts | 269° |
| 2026-05-07 14:39 | 51.99597 | 5.67244 | 32051 ft | 402 kts | 269° |
| 2026-05-07 14:40 | 51.99581 | 5.58173 | 32054 ft | 402 kts | 269° |
| 2026-05-07 14:40 | 51.99558 | 5.49157 | 32059 ft | 401 kts | 269° |
| 2026-05-07 14:41 | 51.99528 | 5.40049 | 32057 ft | 401 kts | 269° |
| 2026-05-07 14:41 | 51.99491 | 5.31076 | 32063 ft | 399 kts | 269° |
| 2026-05-07 14:42 | 51.99447 | 5.22009 | 32064 ft | 399 kts | 269° |
| 2026-05-07 14:42 | 51.99398 | 5.13199 | 32071 ft | 399 kts | 269° |
| 2026-05-07 14:43 | 51.99341 | 5.04209 | 32073 ft | 399 kts | 269° |
| 2026-05-07 14:43 | 51.99276 | 4.95199 | 32071 ft | 400 kts | 268° |
| 2026-05-07 14:44 | 51.99205 | 4.86166 | 32069 ft | 400 kts | 268° |
| 2026-05-07 14:44 | 51.99127 | 4.77133 | 32078 ft | 400 kts | 268° |
| 2026-05-07 14:45 | 51.99042 | 4.68088 | 32076 ft | 401 kts | 268° |
| 2026-05-07 14:45 | 51.98949 | 4.59044 | 32079 ft | 401 kts | 268° |
| 2026-05-07 14:46 | 51.98867 | 4.51509 | 32078 ft | 401 kts | 268° |
| 2026-05-07 14:46 | 51.98745 | 4.40978 | 32076 ft | 401 kts | 268° |
| 2026-05-07 14:47 | 51.98651 | 4.33396 | 32077 ft | 401 kts | 268° |
| 2026-05-07 14:47 | 51.98532 | 4.24337 | 32074 ft | 401 kts | 268° |
| 2026-05-07 14:48 | 51.98407 | 4.15350 | 32081 ft | 401 kts | 268° |
| 2026-05-07 14:48 | 51.98274 | 4.06302 | 32081 ft | 401 kts | 268° |
| 2026-05-07 14:49 | 51.98135 | 3.97263 | 32086 ft | 401 kts | 268° |
| 2026-05-07 14:49 | 51.97988 | 3.88206 | 32089 ft | 401 kts | 268° |
| 2026-05-07 14:50 | 51.97835 | 3.79179 | 32095 ft | 400 kts | 268° |
| 2026-05-07 14:50 | 51.97756 | 3.74663 | 31976 ft | 403 kts | 268° |
| 2026-05-07 14:50 | 51.97675 | 3.70113 | 31702 ft | 403 kts | 268° |
| 2026-05-07 14:51 | 51.97592 | 3.65580 | 31451 ft | 401 kts | 267° |
| 2026-05-07 14:51 | 51.97507 | 3.61061 | 31194 ft | 401 kts | 267° |
| 2026-05-07 14:51 | 51.97421 | 3.56540 | 30957 ft | 402 kts | 267° |
| 2026-05-07 14:51 | 51.97333 | 3.52000 | 30709 ft | 402 kts | 267° |
| 2026-05-07 14:52 | 51.97243 | 3.47449 | 30458 ft | 403 kts | 267° |
| 2026-05-07 14:52 | 51.97151 | 3.42908 | 30217 ft | 403 kts | 267° |
| 2026-05-07 14:52 | 51.97057 | 3.38358 | 29941 ft | 404 kts | 267° |
| 2026-05-07 14:52 | 51.96962 | 3.33809 | 29659 ft | 404 kts | 267° |
| 2026-05-07 14:53 | 51.96865 | 3.29258 | 29405 ft | 404 kts | 267° |
| 2026-05-07 14:53 | 51.96767 | 3.24704 | 29153 ft | 404 kts | 267° |
| 2026-05-07 14:53 | 51.96667 | 3.20152 | 28897 ft | 404 kts | 267° |
| 2026-05-07 14:53 | 51.96538 | 3.15663 | 28653 ft | 404 kts | 265° |
| 2026-05-07 14:54 | 51.96283 | 3.11119 | 28408 ft | 404 kts | 263° |
| 2026-05-07 14:54 | 51.95969 | 3.06586 | 28168 ft | 408 kts | 263° |
| 2026-05-07 14:54 | 51.95636 | 3.01986 | 27957 ft | 411 kts | 263° |
| 2026-05-07 14:54 | 51.95307 | 2.97396 | 27719 ft | 410 kts | 263° |
| 2026-05-07 14:55 | 51.94987 | 2.92802 | 27490 ft | 409 kts | 263° |
| 2026-05-07 14:55 | 51.94674 | 2.88234 | 27194 ft | 405 kts | 263° |
| 2026-05-07 14:55 | 51.94368 | 2.83739 | 26828 ft | 398 kts | 263° |
| 2026-05-07 14:55 | 51.94067 | 2.79305 | 26417 ft | 393 kts | 263° |
| 2026-05-07 14:56 | 51.93769 | 2.74932 | 26019 ft | 388 kts | 263° |
| 2026-05-07 14:56 | 51.93471 | 2.70610 | 25630 ft | 383 kts | 263° |
| 2026-05-07 14:56 | 51.93175 | 2.66339 | 25243 ft | 379 kts | 263° |
| 2026-05-07 14:56 | 51.92885 | 2.62123 | 24864 ft | 375 kts | 263° |
| 2026-05-07 14:57 | 51.92597 | 2.57936 | 24485 ft | 371 kts | 263° |
| 2026-05-07 14:57 | 51.92311 | 2.53793 | 24110 ft | 368 kts | 263° |
| 2026-05-07 14:57 | 51.92027 | 2.49689 | 23737 ft | 365 kts | 263° |
| 2026-05-07 14:57 | 51.91744 | 2.45621 | 23313 ft | 362 kts | 263° |
| 2026-05-07 14:58 | 51.91463 | 2.41592 | 22899 ft | 358 kts | 263° |
| 2026-05-07 14:58 | 51.91184 | 2.37612 | 22553 ft | 354 kts | 263° |
| 2026-05-07 14:58 | 51.90905 | 2.33677 | 22161 ft | 350 kts | 263° |
| 2026-05-07 14:58 | 51.90682 | 2.29768 | 21791 ft | 347 kts | 266° |
| 2026-05-07 14:59 | 51.90582 | 2.25887 | 21446 ft | 343 kts | 268° |
| 2026-05-07 14:59 | 51.90519 | 2.22090 | 21102 ft | 340 kts | 268° |
| 2026-05-07 14:59 | 51.90456 | 2.18285 | 20758 ft | 337 kts | 268° |
| 2026-05-07 14:59 | 51.90386 | 2.14511 | 20418 ft | 334 kts | 267° |
| 2026-05-07 15:00 | 51.90308 | 2.10771 | 20077 ft | 331 kts | 267° |
| 2026-05-07 15:00 | 51.90224 | 2.07060 | 19750 ft | 328 kts | 267° |
| 2026-05-07 15:00 | 51.90137 | 2.03379 | 19424 ft | 325 kts | 267° |
| 2026-05-07 15:00 | 51.90050 | 1.99724 | 19094 ft | 323 kts | 267° |
| 2026-05-07 15:01 | 51.89961 | 1.96106 | 18766 ft | 321 kts | 267° |
| 2026-05-07 15:01 | 51.89870 | 1.92504 | 18441 ft | 319 kts | 267° |
| 2026-05-07 15:01 | 51.89924 | 1.88933 | 18066 ft | 318 kts | 280° |
| 2026-05-07 15:01 | 51.90659 | 1.85631 | 17791 ft | 315 kts | 295° |
| 2026-05-07 15:02 | 51.91677 | 1.82494 | 17511 ft | 315 kts | 297° |
| 2026-05-07 15:02 | 51.92728 | 1.79382 | 17227 ft | 315 kts | 297° |
| 2026-05-07 15:02 | 51.93781 | 1.76275 | 16949 ft | 314 kts | 297° |
| 2026-05-07 15:02 | 51.94827 | 1.73167 | 16673 ft | 313 kts | 297° |
| 2026-05-07 15:03 | 51.95862 | 1.70068 | 16397 ft | 312 kts | 297° |
| 2026-05-07 15:03 | 51.96888 | 1.66973 | 16125 ft | 311 kts | 297° |
| 2026-05-07 15:03 | 51.97908 | 1.63885 | 15848 ft | 310 kts | 297° |
| 2026-05-07 15:03 | 51.98918 | 1.60815 | 15581 ft | 308 kts | 296° |
| 2026-05-07 15:04 | 51.99922 | 1.57755 | 15315 ft | 307 kts | 296° |
| 2026-05-07 15:04 | 52.00922 | 1.54700 | 15048 ft | 306 kts | 296° |
| 2026-05-07 15:04 | 52.01917 | 1.51656 | 14784 ft | 304 kts | 296° |
| 2026-05-07 15:04 | 52.02907 | 1.48623 | 14510 ft | 303 kts | 296° |
| 2026-05-07 15:05 | 52.03892 | 1.45604 | 14252 ft | 302 kts | 296° |
| 2026-05-07 15:05 | 52.04875 | 1.42586 | 13994 ft | 301 kts | 297° |
| 2026-05-07 15:05 | 52.05853 | 1.39582 | 13693 ft | 300 kts | 297° |
| 2026-05-07 15:05 | 52.06828 | 1.36581 | 13414 ft | 299 kts | 297° |
| 2026-05-07 15:06 | 52.07782 | 1.33641 | 13143 ft | 298 kts | 296° |
| 2026-05-07 15:06 | 52.08748 | 1.30665 | 12883 ft | 296 kts | 296° |
| 2026-05-07 15:06 | 52.09704 | 1.27711 | 12618 ft | 295 kts | 296° |
| 2026-05-07 15:06 | 52.10656 | 1.24767 | 12352 ft | 293 kts | 296° |
| 2026-05-07 15:07 | 52.11463 | 1.21743 | 12076 ft | 291 kts | 279° |
| 2026-05-07 15:07 | 52.11492 | 1.18519 | 11893 ft | 284 kts | 258° |
| 2026-05-07 15:07 | 52.11037 | 1.15420 | 11710 ft | 281 kts | 253° |
| 2026-05-07 15:07 | 52.10535 | 1.12476 | 11521 ft | 283 kts | 253° |
| 2026-05-07 15:08 | 52.09996 | 1.09382 | 11310 ft | 285 kts | 253° |
| 2026-05-07 15:08 | 52.09458 | 1.06272 | 11118 ft | 286 kts | 253° |
| 2026-05-07 15:08 | 52.08923 | 1.03155 | 10898 ft | 286 kts | 253° |
| 2026-05-07 15:08 | 52.08395 | 1.00044 | 10698 ft | 285 kts | 253° |
| 2026-05-07 15:09 | 52.07870 | 0.96941 | 10505 ft | 285 kts | 253° |
| 2026-05-07 15:09 | 52.07346 | 0.93831 | 10302 ft | 285 kts | 253° |
| 2026-05-07 15:09 | 52.06824 | 0.90735 | 10096 ft | 282 kts | 253° |
| 2026-05-07 15:09 | 52.06324 | 0.87765 | 9898 ft | 279 kts | 253° |
| 2026-05-07 15:10 | 52.05814 | 0.84734 | 9657 ft | 275 kts | 253° |
| 2026-05-07 15:10 | 52.05318 | 0.81795 | 9460 ft | 270 kts | 253° |
| 2026-05-07 15:10 | 52.04824 | 0.78871 | 9270 ft | 267 kts | 253° |
| 2026-05-07 15:10 | 52.04334 | 0.75973 | 9071 ft | 266 kts | 253° |
| 2026-05-07 15:11 | 52.03842 | 0.73072 | 8851 ft | 266 kts | 253° |
| 2026-05-07 15:11 | 52.03354 | 0.70190 | 8644 ft | 265 kts | 253° |
| 2026-05-07 15:11 | 52.02867 | 0.67326 | 8435 ft | 261 kts | 253° |
| 2026-05-07 15:11 | 52.02387 | 0.64509 | 8255 ft | 256 kts | 253° |
| 2026-05-07 15:12 | 52.01916 | 0.61748 | 8070 ft | 251 kts | 253° |
| 2026-05-07 15:12 | 52.01515 | 0.58997 | 7752 ft | 253 kts | 262° |
| 2026-05-07 15:12 | 52.01414 | 0.56139 | 7376 ft | 253 kts | 267° |
| 2026-05-07 15:12 | 52.01368 | 0.53288 | 6937 ft | 252 kts | 266° |
| 2026-05-07 15:13 | 52.01309 | 0.50454 | 6589 ft | 249 kts | 266° |
| 2026-05-07 15:13 | 52.01239 | 0.47677 | 6272 ft | 244 kts | 266° |
| 2026-05-07 15:13 | 52.01145 | 0.44949 | 5967 ft | 241 kts | 263° |
| 2026-05-07 15:13 | 52.00989 | 0.42260 | 5766 ft | 238 kts | 263° |
| 2026-05-07 15:14 | 52.00828 | 0.39608 | 5552 ft | 235 kts | 263° |
| 2026-05-07 15:14 | 52.00671 | 0.36971 | 5398 ft | 233 kts | 262° |
| 2026-05-07 15:14 | 52.00516 | 0.34368 | 5222 ft | 230 kts | 262° |
| 2026-05-07 15:14 | 52.00367 | 0.31834 | 5063 ft | 226 kts | 262° |
| 2026-05-07 15:15 | 52.00218 | 0.29322 | 4899 ft | 221 kts | 261° |
| 2026-05-07 15:15 | 51.99715 | 0.27067 | 4753 ft | 209 kts | 234° |
| 2026-05-07 15:15 | 51.98779 | 0.25270 | 4616 ft | 209 kts | 223° |
| 2026-05-07 15:15 | 51.97720 | 0.23643 | 4471 ft | 210 kts | 221° |
| 2026-05-07 15:16 | 51.96651 | 0.22039 | 4307 ft | 208 kts | 221° |
| 2026-05-07 15:16 | 51.95603 | 0.20443 | 4128 ft | 205 kts | 221° |
| 2026-05-07 15:16 | 51.94575 | 0.18866 | 3973 ft | 203 kts | 221° |
| 2026-05-07 15:16 | 51.93554 | 0.17294 | 3818 ft | 203 kts | 222° |
| 2026-05-07 15:17 | 51.92536 | 0.15722 | 3665 ft | 201 kts | 222° |
| 2026-05-07 15:17 | 51.91525 | 0.14158 | 3527 ft | 201 kts | 222° |
| 2026-05-07 15:17 | 51.90507 | 0.12583 | 3367 ft | 203 kts | 222° |
| 2026-05-07 15:17 | 51.89487 | 0.11005 | 3218 ft | 203 kts | 222° |
| 2026-05-07 15:18 | 51.88467 | 0.09428 | 3088 ft | 202 kts | 222° |
| 2026-05-07 15:18 | 51.87455 | 0.07865 | 2965 ft | 200 kts | 222° |
| 2026-05-07 15:18 | 51.86445 | 0.06305 | 2870 ft | 202 kts | 221° |
| 2026-05-07 15:18 | 51.85417 | 0.04759 | 2762 ft | 201 kts | 220° |
| 2026-05-07 15:19 | 51.84372 | 0.03251 | 2652 ft | 202 kts | 220° |
| 2026-05-07 15:19 | 51.83286 | 0.01782 | 2537 ft | 205 kts | 208° |
| 2026-05-07 15:19 | 51.81939 | 0.01477 | 2504 ft | 197 kts | 164° |
| 2026-05-07 15:19 | 51.80769 | 0.02563 | 2493 ft | 194 kts | 144° |
| 2026-05-07 15:20 | 51.79655 | 0.03840 | 2500 ft | 198 kts | 146° |
| 2026-05-07 15:20 | 51.78566 | 0.05174 | 2483 ft | 194 kts | 132° |
| 2026-05-07 15:20 | 51.78111 | 0.07117 | 2470 ft | 188 kts | 85° |
| 2026-05-07 15:20 | 51.78709 | 0.08956 | 2506 ft | 191 kts | 40° |
| 2026-05-07 15:21 | 51.79740 | 0.10252 | 2485 ft | 185 kts | 44° |
| 2026-05-07 15:21 | 51.80678 | 0.11683 | 2301 ft | 185 kts | 45° |
| 2026-05-07 15:21 | 51.81600 | 0.13088 | 2058 ft | 179 kts | 44° |
| 2026-05-07 15:21 | 51.82483 | 0.14423 | 1811 ft | 174 kts | 45° |
| 2026-05-07 15:22 | 51.83363 | 0.15726 | 1630 ft | 163 kts | 44° |
| 2026-05-07 15:22 | 51.84161 | 0.16904 | 1428 ft | 145 kts | 45° |
| 2026-05-07 15:22 | 51.84859 | 0.17963 | 1226 ft | 136 kts | 48° |
| 2026-05-07 15:22 | 51.85539 | 0.19032 | 952 ft | 135 kts | 48° |
| 2026-05-07 15:23 | 51.86242 | 0.20076 | 743 ft | 137 kts | 47° |
| 2026-05-07 15:23 | 51.86935 | 0.21135 | 571 ft | 138 kts | 47° |
| 2026-05-07 15:23 | 51.87644 | 0.22192 | 390 ft | 137 kts | 46° |
| 2026-05-07 15:23 | 51.88303 | 0.23180 | 337 ft | 117 kts | 42° |
| 2026-05-07 15:24 | 51.88790 | 0.23915 | 336 ft | 74 kts | 43° |
| 2026-05-07 15:24 | 51.89008 | 0.24262 | 341 ft | 36 kts | 52° |
| 2026-05-07 15:24 | 51.89116 | 0.24600 | 337 ft | 28 kts | 68° |
| 2026-05-07 15:24 | 51.89165 | 0.24801 | 348 ft | 14 kts | 75° |
| 2026-05-07 15:25 | 51.89154 | 0.24921 | 350 ft | 9 kts | 85° |
| 2026-05-07 15:25 | 51.89194 | 0.25006 | 348 ft | 13 kts | 44° |
| 2026-05-07 15:25 | 51.89251 | 0.25143 | 355 ft | 16 kts | 57° |
| 2026-05-07 15:25 | 51.89336 | 0.25285 | 348 ft | 19 kts | 42° |
| 2026-05-07 15:26 | 51.89425 | 0.25426 | 348 ft | 15 kts | 41° |
| 2026-05-07 15:26 | 51.89512 | 0.25552 | 348 ft | 19 kts | 43° |
| 2026-05-07 15:26 | 51.89606 | 0.25705 | 352 ft | 18 kts | 65° |
| 2026-05-07 15:26 | 51.89599 | 0.25782 | 353 ft | 0 kts | 122° |
| 2026-05-07 15:27 | 51.89580 | 0.25813 | 351 ft | 8 kts | 142° |
| 2026-05-07 15:28 | 51.89518 | 0.25882 | 354 ft | 13 kts | 140° |
| 2026-05-07 15:28 | 51.89462 | 0.25978 | 350 ft | 11 kts | 133° |
| 2026-05-07 15:28 | 51.89409 | 0.26069 | 348 ft | 11 kts | 133° |
| 2026-05-07 15:28 | 51.89362 | 0.26129 | 352 ft | 6 kts | 177° |
| 2026-05-07 15:29 | 51.89335 | 0.26105 | 354 ft | 3 kts | 221° |
| 2026-05-07 15:29 | 51.89324 | 0.26088 | 348 ft | 0 kts | 222° |
| 2026-05-07 15:29 | 51.89322 | 0.26087 | 348 ft | 0 kts | 222° |